sensor_id;sensor_type;location;lat;lon;timestamp;temperature;humidity
36372;DHT22;22398;51.346;12.372;2023-04-24T00:01:03;14.10;93.10
36372;DHT22;22398;51.346;12.372;2023-04-24T00:06:09;14.10;93.50
36372;DHT22;22398;51.346;12.372;2023-04-24T00:11:14;14.00;93.80
36372;DHT22;22398;51.346;12.372;2023-04-24T00:16:18;14.00;94.30
36372;DHT22;22398;51.346;12.372;2023-04-24T00:21:22;13.90;94.80
36372;DHT22;22398;51.346;12.372;2023-04-24T00:26:29;13.90;95.40
36372;DHT22;22398;51.346;12.372;2023-04-24T00:31:32;13.80;95.70
36372;DHT22;22398;51.346;12.372;2023-04-24T00:36:36;13.60;96.20
36372;DHT22;22398;51.346;12.372;2023-04-24T00:41:41;13.50;96.70
36372;DHT22;22398;51.346;12.372;2023-04-24T00:46:46;13.40;97.10
36372;DHT22;22398;51.346;12.372;2023-04-24T00:51:53;13.30;97.50
36372;DHT22;22398;51.346;12.372;2023-04-24T00:56:58;13.20;98.00
36372;DHT22;22398;51.346;12.372;2023-04-24T01:02:02;13.20;98.40
36372;DHT22;22398;51.346;12.372;2023-04-24T01:07:05;13.10;98.80
36372;DHT22;22398;51.346;12.372;2023-04-24T01:12:13;13.10;99.10
36372;DHT22;22398;51.346;12.372;2023-04-24T01:17:19;13.00;99.40
36372;DHT22;22398;51.346;12.372;2023-04-24T01:22:24;13.00;99.60
36372;DHT22;22398;51.346;12.372;2023-04-24T01:27:27;13.00;99.70
36372;DHT22;22398;51.346;12.372;2023-04-24T01:32:31;12.90;99.80
36372;DHT22;22398;51.346;12.372;2023-04-24T01:37:36;12.90;99.90
36372;DHT22;22398;51.346;12.372;2023-04-24T01:42:41;12.90;99.80
36372;DHT22;22398;51.346;12.372;2023-04-24T01:47:45;12.80;99.80
36372;DHT22;22398;51.346;12.372;2023-04-24T01:52:50;12.70;99.90
36372;DHT22;22398;51.346;12.372;2023-04-24T01:57:55;12.70;99.90
36372;DHT22;22398;51.346;12.372;2023-04-24T02:02:59;12.60;99.90
36372;DHT22;22398;51.346;12.372;2023-04-24T02:08:05;12.50;99.90
36372;DHT22;22398;51.346;12.372;2023-04-24T02:13:12;12.50;99.90
36372;DHT22;22398;51.346;12.372;2023-04-24T02:18:15;12.40;99.90
36372;DHT22;22398;51.346;12.372;2023-04-24T02:23:20;12.30;99.90
36372;DHT22;22398;51.346;12.372;2023-04-24T02:28:23;12.30;99.90
36372;DHT22;22398;51.346;12.372;2023-04-24T02:33:27;12.30;99.90
36372;DHT22;22398;51.346;12.372;2023-04-24T02:38:32;12.30;99.90
36372;DHT22;22398;51.346;12.372;2023-04-24T02:43:35;12.20;99.90
36372;DHT22;22398;51.346;12.372;2023-04-24T02:48:39;12.20;99.90
36372;DHT22;22398;51.346;12.372;2023-04-24T02:53:44;12.20;99.90
36372;DHT22;22398;51.346;12.372;2023-04-24T02:58:47;12.10;99.90
36372;DHT22;22398;51.346;12.372;2023-04-24T03:03:51;12.00;99.90
36372;DHT22;22398;51.346;12.372;2023-04-24T03:08:56;12.00;99.90
36372;DHT22;22398;51.346;12.372;2023-04-24T03:14:00;11.90;99.90
36372;DHT22;22398;51.346;12.372;2023-04-24T03:19:04;11.90;99.90
36372;DHT22;22398;51.346;12.372;2023-04-24T03:24:12;11.90;99.90
36372;DHT22;22398;51.346;12.372;2023-04-24T03:29:16;11.80;99.90
36372;DHT22;22398;51.346;12.372;2023-04-24T03:34:20;11.80;99.90
36372;DHT22;22398;51.346;12.372;2023-04-24T03:39:25;11.70;99.90
36372;DHT22;22398;51.346;12.372;2023-04-24T03:44:31;11.70;99.90
36372;DHT22;22398;51.346;12.372;2023-04-24T03:49:35;11.70;99.90
36372;DHT22;22398;51.346;12.372;2023-04-24T03:54:41;11.70;99.90
36372;DHT22;22398;51.346;12.372;2023-04-24T03:59:45;11.60;99.90
36372;DHT22;22398;51.346;12.372;2023-04-24T04:04:52;11.60;99.90
36372;DHT22;22398;51.346;12.372;2023-04-24T04:09:58;11.60;99.90
36372;DHT22;22398;51.346;12.372;2023-04-24T04:15:02;11.60;99.90
36372;DHT22;22398;51.346;12.372;2023-04-24T04:20:07;11.60;99.90
36372;DHT22;22398;51.346;12.372;2023-04-24T04:25:15;11.50;99.90
36372;DHT22;22398;51.346;12.372;2023-04-24T04:30:21;11.70;99.90
36372;DHT22;22398;51.346;12.372;2023-04-24T04:35:31;11.80;99.90
36372;DHT22;22398;51.346;12.372;2023-04-24T04:40:36;12.00;99.90
36372;DHT22;22398;51.346;12.372;2023-04-24T04:45:41;12.20;99.90
36372;DHT22;22398;51.346;12.372;2023-04-24T04:51:17;12.30;99.90
36372;DHT22;22398;51.346;12.372;2023-04-24T04:56:23;12.40;99.90
36372;DHT22;22398;51.346;12.372;2023-04-24T05:01:27;12.50;99.90
36372;DHT22;22398;51.346;12.372;2023-04-24T05:06:30;12.50;99.90
36372;DHT22;22398;51.346;12.372;2023-04-24T05:11:35;12.60;99.90
36372;DHT22;22398;51.346;12.372;2023-04-24T05:16:39;12.70;99.90
36372;DHT22;22398;51.346;12.372;2023-04-24T05:21:45;12.90;99.90
36372;DHT22;22398;51.346;12.372;2023-04-24T05:26:50;13.00;99.90
36372;DHT22;22398;51.346;12.372;2023-04-24T05:31:59;13.20;99.90
36372;DHT22;22398;51.346;12.372;2023-04-24T05:37:05;13.50;99.90
36372;DHT22;22398;51.346;12.372;2023-04-24T05:42:13;13.80;99.90
36372;DHT22;22398;51.346;12.372;2023-04-24T05:47:17;14.10;99.40
36372;DHT22;22398;51.346;12.372;2023-04-24T05:52:21;14.10;98.60
36372;DHT22;22398;51.346;12.372;2023-04-24T05:57:26;14.10;98.30
36372;DHT22;22398;51.346;12.372;2023-04-24T06:02:36;14.20;98.10
36372;DHT22;22398;51.346;12.372;2023-04-24T06:07:42;14.50;97.70
36372;DHT22;22398;51.346;12.372;2023-04-24T06:12:46;14.80;97.00
36372;DHT22;22398;51.346;12.372;2023-04-24T06:17:51;14.90;96.30
36372;DHT22;22398;51.346;12.372;2023-04-24T06:22:55;15.10;95.80
36372;DHT22;22398;51.346;12.372;2023-04-24T06:28:00;15.00;95.20
36372;DHT22;22398;51.346;12.372;2023-04-24T06:33:05;14.90;94.80
36372;DHT22;22398;51.346;12.372;2023-04-24T06:38:22;14.90;94.60
36372;DHT22;22398;51.346;12.372;2023-04-24T06:43:26;15.00;94.30
36372;DHT22;22398;51.346;12.372;2023-04-24T06:48:30;14.90;94.00
36372;DHT22;22398;51.346;12.372;2023-04-24T06:53:34;14.80;93.90
36372;DHT22;22398;51.346;12.372;2023-04-24T06:58:39;14.80;93.90
36372;DHT22;22398;51.346;12.372;2023-04-24T07:03:42;15.00;93.70
36372;DHT22;22398;51.346;12.372;2023-04-24T07:08:46;15.20;93.50
36372;DHT22;22398;51.346;12.372;2023-04-24T07:13:52;15.30;93.10
36372;DHT22;22398;51.346;12.372;2023-04-24T07:18:56;15.30;92.90
36372;DHT22;22398;51.346;12.372;2023-04-24T07:23:59;15.20;92.60
36372;DHT22;22398;51.346;12.372;2023-04-24T07:29:05;15.50;92.70
36372;DHT22;22398;51.346;12.372;2023-04-24T07:34:08;15.50;92.50
36372;DHT22;22398;51.346;12.372;2023-04-24T07:39:12;15.90;92.30
36372;DHT22;22398;51.346;12.372;2023-04-24T07:44:16;16.40;91.70
36372;DHT22;22398;51.346;12.372;2023-04-24T07:49:20;16.90;91.00
36372;DHT22;22398;51.346;12.372;2023-04-24T07:54:24;17.00;90.00
36372;DHT22;22398;51.346;12.372;2023-04-24T07:59:29;16.90;88.50
36372;DHT22;22398;51.346;12.372;2023-04-24T08:04:33;16.70;87.40
36372;DHT22;22398;51.346;12.372;2023-04-24T08:09:36;17.00;86.70
36372;DHT22;22398;51.346;12.372;2023-04-24T08:14:41;17.00;84.80
36372;DHT22;22398;51.346;12.372;2023-04-24T08:19:45;17.10;84.30
36372;DHT22;22398;51.346;12.372;2023-04-24T08:24:50;17.50;83.20
36372;DHT22;22398;51.346;12.372;2023-04-24T08:29:54;17.80;81.20
36372;DHT22;22398;51.346;12.372;2023-04-24T08:34:58;18.40;79.70
36372;DHT22;22398;51.346;12.372;2023-04-24T08:40:06;18.70;77.50
36372;DHT22;22398;51.346;12.372;2023-04-24T08:45:12;18.80;75.60
36372;DHT22;22398;51.346;12.372;2023-04-24T08:50:16;18.10;74.00
36372;DHT22;22398;51.346;12.372;2023-04-24T08:55:20;17.60;73.90
36372;DHT22;22398;51.346;12.372;2023-04-24T09:00:25;17.60;73.50
36372;DHT22;22398;51.346;12.372;2023-04-24T09:05:29;17.30;72.60
36372;DHT22;22398;51.346;12.372;2023-04-24T09:10:35;17.60;72.90
36372;DHT22;22398;51.346;12.372;2023-04-24T09:15:40;17.70;72.20
36372;DHT22;22398;51.346;12.372;2023-04-24T09:21:00;17.90;72.00
36372;DHT22;22398;51.346;12.372;2023-04-24T09:26:04;17.80;71.50
36372;DHT22;22398;51.346;12.372;2023-04-24T09:31:11;17.50;71.40
36372;DHT22;22398;51.346;12.372;2023-04-24T09:36:17;17.00;71.50
36372;DHT22;22398;51.346;12.372;2023-04-24T09:41:20;16.70;72.50
36372;DHT22;22398;51.346;12.372;2023-04-24T09:46:31;16.80;72.50
36372;DHT22;22398;51.346;12.372;2023-04-24T09:51:35;16.80;71.60
36372;DHT22;22398;51.346;12.372;2023-04-24T09:56:42;17.00;70.40
36372;DHT22;22398;51.346;12.372;2023-04-24T10:01:47;17.30;69.60
36372;DHT22;22398;51.346;12.372;2023-04-24T10:06:54;17.70;68.90
36372;DHT22;22398;51.346;12.372;2023-04-24T10:11:57;18.10;68.20
36372;DHT22;22398;51.346;12.372;2023-04-24T10:17:03;18.40;67.00
36372;DHT22;22398;51.346;12.372;2023-04-24T10:22:07;18.70;66.60
36372;DHT22;22398;51.346;12.372;2023-04-24T10:27:11;18.10;64.60
36372;DHT22;22398;51.346;12.372;2023-04-24T10:32:18;18.10;64.40
36372;DHT22;22398;51.346;12.372;2023-04-24T10:37:22;18.50;63.80
36372;DHT22;22398;51.346;12.372;2023-04-24T10:42:27;19.00;62.60
36372;DHT22;22398;51.346;12.372;2023-04-24T10:47:39;18.30;61.70
36372;DHT22;22398;51.346;12.372;2023-04-24T10:52:46;17.60;61.70
36372;DHT22;22398;51.346;12.372;2023-04-24T10:58:05;17.20;61.60
36372;DHT22;22398;51.346;12.372;2023-04-24T11:03:24;17.10;61.60
36372;DHT22;22398;51.346;12.372;2023-04-24T11:08:32;17.10;61.10
36372;DHT22;22398;51.346;12.372;2023-04-24T11:14:03;17.00;60.70
36372;DHT22;22398;51.346;12.372;2023-04-24T11:19:10;17.20;60.60
36372;DHT22;22398;51.346;12.372;2023-04-24T11:24:31;17.30;59.90
36372;DHT22;22398;51.346;12.372;2023-04-24T11:29:43;17.90;59.50
36372;DHT22;22398;51.346;12.372;2023-04-24T11:34:49;17.90;58.10
36372;DHT22;22398;51.346;12.372;2023-04-24T11:39:54;17.90;57.30
36372;DHT22;22398;51.346;12.372;2023-04-24T11:44:58;18.00;57.00
36372;DHT22;22398;51.346;12.372;2023-04-24T11:50:05;18.00;56.00
36372;DHT22;22398;51.346;12.372;2023-04-24T11:55:23;18.10;56.00
36372;DHT22;22398;51.346;12.372;2023-04-24T12:00:29;18.10;55.50
36372;DHT22;22398;51.346;12.372;2023-04-24T12:05:34;18.50;55.20
36372;DHT22;22398;51.346;12.372;2023-04-24T12:10:37;18.70;54.10
36372;DHT22;22398;51.346;12.372;2023-04-24T12:15:41;19.20;54.10
36372;DHT22;22398;51.346;12.372;2023-04-24T12:20:45;19.10;53.00
36372;DHT22;22398;51.346;12.372;2023-04-24T12:25:51;18.20;53.40
36372;DHT22;22398;51.346;12.372;2023-04-24T12:30:55;17.70;54.10
36372;DHT22;22398;51.346;12.372;2023-04-24T12:36:00;17.60;54.40
36372;DHT22;22398;51.346;12.372;2023-04-24T12:41:05;17.80;54.50
36372;DHT22;22398;51.346;12.372;2023-04-24T12:46:08;18.20;53.70
36372;DHT22;22398;51.346;12.372;2023-04-24T12:51:13;18.20;53.00
36372;DHT22;22398;51.346;12.372;2023-04-24T12:56:16;17.90;52.90
36372;DHT22;22398;51.346;12.372;2023-04-24T13:01:19;17.90;53.00
36372;DHT22;22398;51.346;12.372;2023-04-24T13:06:24;17.90;52.70
36372;DHT22;22398;51.346;12.372;2023-04-24T13:11:28;17.60;52.30
36372;DHT22;22398;51.346;12.372;2023-04-24T13:16:31;17.60;52.20
36372;DHT22;22398;51.346;12.372;2023-04-24T13:21:36;17.80;51.80
36372;DHT22;22398;51.346;12.372;2023-04-24T13:26:39;18.30;51.80
36372;DHT22;22398;51.346;12.372;2023-04-24T13:31:42;19.00;51.30
36372;DHT22;22398;51.346;12.372;2023-04-24T13:36:49;19.60;50.90
36372;DHT22;22398;51.346;12.372;2023-04-24T13:41:55;19.90;50.30
36372;DHT22;22398;51.346;12.372;2023-04-24T13:46:58;19.90;49.90
36372;DHT22;22398;51.346;12.372;2023-04-24T13:52:03;19.70;49.80
36372;DHT22;22398;51.346;12.372;2023-04-24T13:57:07;19.30;49.70
36372;DHT22;22398;51.346;12.372;2023-04-24T14:02:10;18.80;50.10
36372;DHT22;22398;51.346;12.372;2023-04-24T14:07:15;18.20;50.70
36372;DHT22;22398;51.346;12.372;2023-04-24T14:12:18;18.20;51.50
36372;DHT22;22398;51.346;12.372;2023-04-24T14:17:23;18.20;51.10
36372;DHT22;22398;51.346;12.372;2023-04-24T14:22:28;18.20;50.60
36372;DHT22;22398;51.346;12.372;2023-04-24T14:27:31;18.10;50.80
36372;DHT22;22398;51.346;12.372;2023-04-24T14:32:37;18.00;51.10
36372;DHT22;22398;51.346;12.372;2023-04-24T14:37:42;17.90;51.60
36372;DHT22;22398;51.346;12.372;2023-04-24T14:42:46;17.70;51.60
36372;DHT22;22398;51.346;12.372;2023-04-24T14:47:50;17.20;52.10
36372;DHT22;22398;51.346;12.372;2023-04-24T14:52:55;17.00;53.00
36372;DHT22;22398;51.346;12.372;2023-04-24T14:58:00;16.40;54.00
36372;DHT22;22398;51.346;12.372;2023-04-24T15:03:03;16.40;55.00
36372;DHT22;22398;51.346;12.372;2023-04-24T15:08:09;16.20;55.80
36372;DHT22;22398;51.346;12.372;2023-04-24T15:13:12;15.70;56.60
36372;DHT22;22398;51.346;12.372;2023-04-24T15:18:16;15.80;57.60
36372;DHT22;22398;51.346;12.372;2023-04-24T15:23:21;16.00;57.40
36372;DHT22;22398;51.346;12.372;2023-04-24T15:28:24;15.50;57.70
36372;DHT22;22398;51.346;12.372;2023-04-24T15:33:28;15.20;58.80
36372;DHT22;22398;51.346;12.372;2023-04-24T15:38:33;15.30;59.20
36372;DHT22;22398;51.346;12.372;2023-04-24T15:43:37;15.20;59.60
36372;DHT22;22398;51.346;12.372;2023-04-24T15:48:41;15.40;60.00
36372;DHT22;22398;51.346;12.372;2023-04-24T15:53:47;15.10;59.90
36372;DHT22;22398;51.346;12.372;2023-04-24T15:58:50;15.00;60.40
36372;DHT22;22398;51.346;12.372;2023-04-24T16:03:54;15.00;59.80
36372;DHT22;22398;51.346;12.372;2023-04-24T16:08:59;14.90;59.20
36372;DHT22;22398;51.346;12.372;2023-04-24T16:14:04;14.70;59.30
36372;DHT22;22398;51.346;12.372;2023-04-24T16:19:10;14.80;59.20
36372;DHT22;22398;51.346;12.372;2023-04-24T16:24:15;14.70;59.60
36372;DHT22;22398;51.346;12.372;2023-04-24T16:29:19;15.00;59.50
36372;DHT22;22398;51.346;12.372;2023-04-24T16:34:22;15.60;58.30
36372;DHT22;22398;51.346;12.372;2023-04-24T16:39:27;15.20;58.40
36372;DHT22;22398;51.346;12.372;2023-04-24T16:44:31;14.50;58.70
36372;DHT22;22398;51.346;12.372;2023-04-24T16:49:34;14.10;59.40
36372;DHT22;22398;51.346;12.372;2023-04-24T16:54:39;13.80;60.20
36372;DHT22;22398;51.346;12.372;2023-04-24T16:59:43;13.50;60.80
36372;DHT22;22398;51.346;12.372;2023-04-24T17:04:47;13.30;61.50
36372;DHT22;22398;51.346;12.372;2023-04-24T17:09:52;13.00;62.10
36372;DHT22;22398;51.346;12.372;2023-04-24T17:14:55;13.00;62.70
36372;DHT22;22398;51.346;12.372;2023-04-24T17:19:59;12.90;63.10
36372;DHT22;22398;51.346;12.372;2023-04-24T17:25:24;12.80;63.50
36372;DHT22;22398;51.346;12.372;2023-04-24T17:30:27;12.70;63.90
36372;DHT22;22398;51.346;12.372;2023-04-24T17:35:31;12.60;64.40
36372;DHT22;22398;51.346;12.372;2023-04-24T17:40:36;12.50;64.80
36372;DHT22;22398;51.346;12.372;2023-04-24T17:45:40;12.50;65.20
36372;DHT22;22398;51.346;12.372;2023-04-24T17:50:44;12.40;65.60
36372;DHT22;22398;51.346;12.372;2023-04-24T17:55:49;12.30;66.10
36372;DHT22;22398;51.346;12.372;2023-04-24T18:00:53;12.20;66.50
36372;DHT22;22398;51.346;12.372;2023-04-24T18:05:56;12.10;66.90
36372;DHT22;22398;51.346;12.372;2023-04-24T18:11:02;12.10;67.30
36372;DHT22;22398;51.346;12.372;2023-04-24T18:16:05;12.00;67.80
36372;DHT22;22398;51.346;12.372;2023-04-24T18:21:09;11.90;68.40
36372;DHT22;22398;51.346;12.372;2023-04-24T18:26:14;11.70;68.80
36372;DHT22;22398;51.346;12.372;2023-04-24T18:31:19;11.50;69.40
36372;DHT22;22398;51.346;12.372;2023-04-24T18:36:23;11.30;70.20
36372;DHT22;22398;51.346;12.372;2023-04-24T18:41:28;11.00;71.00
36372;DHT22;22398;51.346;12.372;2023-04-24T18:46:31;10.90;71.90
36372;DHT22;22398;51.346;12.372;2023-04-24T18:51:38;10.70;72.70
36372;DHT22;22398;51.346;12.372;2023-04-24T18:56:57;10.50;73.50
36372;DHT22;22398;51.346;12.372;2023-04-24T19:02:00;10.40;74.40
36372;DHT22;22398;51.346;12.372;2023-04-24T19:07:04;10.30;75.20
36372;DHT22;22398;51.346;12.372;2023-04-24T19:12:09;10.40;76.40
36372;DHT22;22398;51.346;12.372;2023-04-24T19:17:13;10.60;76.90
36372;DHT22;22398;51.346;12.372;2023-04-24T19:22:23;10.70;76.60
36372;DHT22;22398;51.346;12.372;2023-04-24T19:27:28;10.60;76.10
36372;DHT22;22398;51.346;12.372;2023-04-24T19:32:32;10.40;75.60
36372;DHT22;22398;51.346;12.372;2023-04-24T19:37:35;10.20;75.30
36372;DHT22;22398;51.346;12.372;2023-04-24T19:42:40;10.10;75.00
36372;DHT22;22398;51.346;12.372;2023-04-24T19:47:45;10.00;74.80
36372;DHT22;22398;51.346;12.372;2023-04-24T19:52:49;9.80;74.80
36372;DHT22;22398;51.346;12.372;2023-04-24T19:57:53;9.70;75.10
36372;DHT22;22398;51.346;12.372;2023-04-24T20:02:57;9.60;75.40
36372;DHT22;22398;51.346;12.372;2023-04-24T20:08:00;9.50;75.70
36372;DHT22;22398;51.346;12.372;2023-04-24T20:13:05;9.50;76.00
36372;DHT22;22398;51.346;12.372;2023-04-24T20:18:08;9.40;76.30
36372;DHT22;22398;51.346;12.372;2023-04-24T20:23:12;9.30;76.70
36372;DHT22;22398;51.346;12.372;2023-04-24T20:28:17;9.20;77.10
36372;DHT22;22398;51.346;12.372;2023-04-24T20:33:21;9.20;77.50
36372;DHT22;22398;51.346;12.372;2023-04-24T20:38:25;9.10;77.90
36372;DHT22;22398;51.346;12.372;2023-04-24T20:43:29;9.10;78.00
36372;DHT22;22398;51.346;12.372;2023-04-24T20:48:33;9.00;78.10
36372;DHT22;22398;51.346;12.372;2023-04-24T20:53:38;9.00;78.30
36372;DHT22;22398;51.346;12.372;2023-04-24T20:58:45;9.00;78.30
36372;DHT22;22398;51.346;12.372;2023-04-24T21:03:49;9.00;78.50
36372;DHT22;22398;51.346;12.372;2023-04-24T21:08:55;9.00;78.50
36372;DHT22;22398;51.346;12.372;2023-04-24T21:14:00;8.90;78.60
36372;DHT22;22398;51.346;12.372;2023-04-24T21:19:03;8.80;78.70
36372;DHT22;22398;51.346;12.372;2023-04-24T21:24:07;8.70;79.30
36372;DHT22;22398;51.346;12.372;2023-04-24T21:29:12;8.50;79.60
36372;DHT22;22398;51.346;12.372;2023-04-24T21:34:16;8.60;80.10
36372;DHT22;22398;51.346;12.372;2023-04-24T21:39:19;8.50;80.60
36372;DHT22;22398;51.346;12.372;2023-04-24T21:44:24;8.70;80.70
36372;DHT22;22398;51.346;12.372;2023-04-24T21:49:28;8.60;80.70
36372;DHT22;22398;51.346;12.372;2023-04-24T21:54:31;8.60;80.80
36372;DHT22;22398;51.346;12.372;2023-04-24T21:59:36;8.70;80.90
36372;DHT22;22398;51.346;12.372;2023-04-24T22:04:39;8.80;80.80
36372;DHT22;22398;51.346;12.372;2023-04-24T22:09:43;9.00;80.70
36372;DHT22;22398;51.346;12.372;2023-04-24T22:14:47;9.20;80.20
36372;DHT22;22398;51.346;12.372;2023-04-24T22:19:51;9.40;80.00
36372;DHT22;22398;51.346;12.372;2023-04-24T22:24:54;9.50;79.70
36372;DHT22;22398;51.346;12.372;2023-04-24T22:29:59;9.60;79.50
36372;DHT22;22398;51.346;12.372;2023-04-24T22:35:03;9.70;79.40
36372;DHT22;22398;51.346;12.372;2023-04-24T22:40:07;9.50;79.00
36372;DHT22;22398;51.346;12.372;2023-04-24T22:45:12;9.30;79.30
36372;DHT22;22398;51.346;12.372;2023-04-24T22:50:16;9.00;79.90
36372;DHT22;22398;51.346;12.372;2023-04-24T22:55:21;8.90;80.40
36372;DHT22;22398;51.346;12.372;2023-04-24T23:00:26;8.70;80.70
36372;DHT22;22398;51.346;12.372;2023-04-24T23:05:30;8.60;81.50
36372;DHT22;22398;51.346;12.372;2023-04-24T23:10:34;8.50;81.50
36372;DHT22;22398;51.346;12.372;2023-04-24T23:15:38;8.30;81.90
36372;DHT22;22398;51.346;12.372;2023-04-24T23:20:42;8.20;82.70
36372;DHT22;22398;51.346;12.372;2023-04-24T23:25:47;8.00;82.90
36372;DHT22;22398;51.346;12.372;2023-04-24T23:30:52;7.90;84.00
36372;DHT22;22398;51.346;12.372;2023-04-24T23:35:55;7.80;85.10
36372;DHT22;22398;51.346;12.372;2023-04-24T23:41:00;7.90;85.90
36372;DHT22;22398;51.346;12.372;2023-04-24T23:46:05;7.90;86.10
36372;DHT22;22398;51.346;12.372;2023-04-24T23:51:08;7.90;86.90
36372;DHT22;22398;51.346;12.372;2023-04-24T23:56:12;8.20;87.90
